Time;durP1;ratioP1;P1;durP2;ratioP2;P2;SDS_P1;SDS_P2;PMS_P1;PMS_P2;Temp;Humidity;BMP_temperature;BMP_pressure;BME280_temperature;BME280_humidity;BME280_pressure;Samples;Min_cycle;Max_cycle;Signal;HPM_P1;HPM_P2
2023/09/01 00:02:08;;;;;;;;;12.25;12.00;;;;;;;;6488585;39;8983;-58
2023/09/01 00:08:25;;;;;;;;;14.00;13.25;;;;;;;;6489976;39;8961;-58
2023/09/01 00:14:28;;;;;;;;;13.00;12.25;;;;;;;;6488996;39;8877;-57
2023/09/01 00:20:34;;;;;;;;;11.33;10.00;;;;;;;;6488429;39;8878;-57
2023/09/01 00:26:37;;;;;;;;;11.50;11.25;;;;;;;;6488600;39;9010;-57
2023/09/01 00:32:39;;;;;;;;;10.00;8.75;;;;;;;;6488019;46;8870;-57
2023/09/01 00:38:42;;;;;;;;;11.25;10.25;;;;;;;;6488932;39;9002;-58
2023/09/01 00:44:44;;;;;;;;;15.75;13.75;;;;;;;;6487828;46;8949;-58
2023/09/01 00:50:49;;;;;;;;;13.25;10.75;;;;;;;;6487929;31;8846;-58
2023/09/01 00:56:54;;;;;;;;;13.00;8.50;;;;;;;;6487626;46;8890;-57
2023/09/01 01:03:04;;;;;;;;;10.75;10.75;;;;;;;;6486998;39;8884;-57
2023/09/01 01:09:13;;;;;;;;;15.00;13.67;;;;;;;;6489026;39;9003;-57
2023/09/01 01:15:19;;;;;;;;;13.67;12.67;;;;;;;;6487977;39;9583;-57
2023/09/01 01:21:26;;;;;;;;;13.00;12.00;;;;;;;;6488361;39;8981;-58
2023/09/01 01:27:30;;;;;;;;;19.00;18.00;;;;;;;;6487854;39;8921;-57
2023/09/01 01:33:54;;;;;;;;;18.33;17.33;;;;;;;;6488128;39;8889;-58
2023/09/01 01:40:01;;;;;;;;;17.33;16.33;;;;;;;;6486792;39;8877;-58
2023/09/01 01:46:05;;;;;;;;;18.67;17.00;;;;;;;;6487131;39;8890;-56
2023/09/01 01:52:09;;;;;;;;;21.33;19.00;;;;;;;;6487769;39;8845;-57
2023/09/01 01:58:12;;;;;;;;;19.33;18.33;;;;;;;;6487647;39;8945;-57
2023/09/01 02:04:15;;;;;;;;;22.00;20.33;;;;;;;;6486148;39;8865;-57
2023/09/01 02:10:17;;;;;;;;;16.67;16.00;;;;;;;;6486500;46;8890;-57
2023/09/01 02:16:24;;;;;;;;;16.00;16.00;;;;;;;;6486947;31;8883;-56
2023/09/01 02:22:27;;;;;;;;;16.00;16.00;;;;;;;;6487090;46;8894;-58
2023/09/01 02:28:29;;;;;;;;;13.67;12.33;;;;;;;;6487930;31;8925;-58
2023/09/01 02:34:32;;;;;;;;;19.67;18.33;;;;;;;;6487233;46;8882;-57
2023/09/01 02:40:39;;;;;;;;;15.33;15.33;;;;;;;;6488196;39;8912;-58
2023/09/01 02:46:43;;;;;;;;;18.33;17.67;;;;;;;;6487589;39;9490;-58
2023/09/01 02:52:49;;;;;;;;;23.67;18.33;;;;;;;;6487191;31;8896;-58
2023/09/01 02:58:53;;;;;;;;;13.67;13.33;;;;;;;;6485623;46;9009;-58
2023/09/01 03:04:56;;;;;;;;;16.67;16.67;;;;;;;;6486528;39;9402;-58
2023/09/01 03:11:00;;;;;;;;;17.33;17.00;;;;;;;;6487538;31;8952;-57
2023/09/01 03:17:06;;;;;;;;;21.00;19.33;;;;;;;;6486343;31;8940;-57
2023/09/01 03:23:09;;;;;;;;;16.00;14.67;;;;;;;;6487428;39;8854;-57
2023/09/01 03:29:13;;;;;;;;;18.67;16.67;;;;;;;;6487593;36;8963;-57
2023/09/01 03:35:18;;;;;;;;;21.00;18.67;;;;;;;;6485693;46;8929;-58
2023/09/01 03:41:24;;;;;;;;;19.00;18.00;;;;;;;;6487630;39;9011;-58
2023/09/01 03:47:27;;;;;;;;;19.33;18.67;;;;;;;;6486764;39;8952;-58
2023/09/01 03:53:30;;;;;;;;;20.00;19.00;;;;;;;;6485461;47;8852;-58
2023/09/01 03:59:33;;;;;;;;;18.00;15.67;;;;;;;;6486089;31;8937;-57
2023/09/01 04:05:37;;;;;;;;;18.00;17.00;;;;;;;;6459415;39;9082;-53
2023/09/01 04:11:39;;;;;;;;;18.33;18.00;;;;;;;;6491815;39;8850;-51
